createdAt,value
2024-03-02T00:01:54.648Z,96493.91
2024-03-02T00:04:24.232Z,96488.00
2024-03-02T00:06:55.786Z,96481.28
2024-03-02T00:09:24.205Z,96486.38
2024-03-02T00:11:53.041Z,96485.47
2024-03-02T00:14:21.632Z,96484.50
2024-03-02T00:16:49.949Z,96484.50
2024-03-02T00:19:18.407Z,96477.69
2024-03-02T00:21:48.846Z,96482.09
2024-03-02T00:24:23.910Z,96481.97
2024-03-02T00:26:52.471Z,96482.91
2024-03-02T00:29:22.244Z,96484.50
2024-03-02T00:31:50.625Z,96482.91
2024-03-02T00:34:20.103Z,96481.03
2024-03-02T00:36:50.136Z,96478.94
2024-03-02T00:39:19.556Z,96479.38
2024-03-02T00:41:48.749Z,96479.84
2024-03-02T00:44:21.134Z,96484.69
2024-03-02T00:46:49.393Z,96484.81
2024-03-02T00:49:23.652Z,96486.53
2024-03-02T00:51:55.567Z,96485.88
2024-03-02T00:54:27.159Z,96484.13
2024-03-02T00:56:57.484Z,96486.78
2024-03-02T00:59:26.289Z,96491.66
2024-03-02T01:01:55.095Z,96489.09
2024-03-02T01:04:23.415Z,96493.84
2024-03-02T01:06:53.094Z,96492.78
2024-03-02T01:09:21.619Z,96495.22
2024-03-02T01:11:50.206Z,96490.69
2024-03-02T01:14:18.532Z,96496.84
2024-03-02T01:16:46.843Z,96498.44
2024-03-02T01:19:15.958Z,96502.75
2024-03-02T01:21:44.440Z,96503.22
2024-03-02T01:24:14.443Z,96494.22
2024-03-02T01:26:42.755Z,96493.78
2024-03-02T01:29:10.984Z,96495.31
2024-03-02T01:31:40.820Z,96497.72
2024-03-02T01:34:09.099Z,96492.81
2024-03-02T01:36:37.411Z,96496.84
2024-03-02T01:39:09.937Z,96504.97
2024-03-02T01:41:39.611Z,96496.19
2024-03-02T01:44:07.974Z,96494.94
2024-03-02T01:46:36.962Z,96487.91
2024-03-02T01:49:05.603Z,96482.34
2024-03-02T01:51:33.973Z,96488.72
2024-03-02T01:54:02.303Z,96491.66
2024-03-02T01:56:30.596Z,96496.75
2024-03-02T01:59:00.225Z,96485.63
2024-03-02T02:01:28.785Z,96486.53
2024-03-02T02:03:57.191Z,96491.66
2024-03-02T02:06:25.513Z,96490.06
2024-03-02T02:08:53.842Z,96488.53
2024-03-02T02:11:22.402Z,96489.34
2024-03-02T02:13:50.749Z,96492.81
2024-03-02T02:16:20.477Z,96491.91
2024-03-02T02:18:48.778Z,96483.81
2024-03-02T02:21:17.299Z,96492.63
2024-03-02T02:23:49.444Z,96490.19
2024-03-02T02:26:17.770Z,96492.88
2024-03-02T02:28:48.139Z,96492.88
2024-03-02T02:31:16.546Z,96487.91
2024-03-02T02:33:45.078Z,96493.13
2024-03-02T02:36:13.290Z,96494.84
2024-03-02T02:38:49.150Z,96498.22
2024-03-02T02:41:17.493Z,96497.28
2024-03-02T02:43:45.739Z,96497.16
2024-03-02T02:46:13.951Z,96496.34
2024-03-02T02:48:42.226Z,96497.03
2024-03-02T02:51:10.469Z,96500.97
2024-03-02T02:53:41.380Z,96498.28
2024-03-02T02:56:11.530Z,96496.44
2024-03-02T02:58:39.753Z,96491.34
2024-03-02T03:01:08.745Z,96493.78
2024-03-02T03:03:37.082Z,96497.00
2024-03-02T03:06:05.856Z,96501.63
2024-03-02T03:08:34.083Z,96502.31
2024-03-02T03:11:02.412Z,96498.94
2024-03-02T03:13:32.162Z,96494.66
2024-03-02T03:16:00.593Z,96498.16
2024-03-02T03:18:28.886Z,96497.59
2024-03-02T03:20:57.131Z,96497.72
2024-03-02T03:23:26.919Z,96491.66
2024-03-02T03:25:55.152Z,96488.38
2024-03-02T03:28:23.379Z,96495.19
2024-03-02T03:30:53.026Z,96500.59
2024-03-02T03:33:21.338Z,96493.28
2024-03-02T03:35:49.530Z,96497.09
2024-03-02T03:38:17.740Z,96497.50
2024-03-02T03:40:46.125Z,96505.84
2024-03-02T03:43:14.422Z,96498.88
2024-03-02T03:45:43.195Z,96499.56
2024-03-02T03:48:12.809Z,96498.50
2024-03-02T03:50:41.048Z,96502.31
2024-03-02T03:53:09.482Z,96503.66
2024-03-02T03:55:37.711Z,96505.28
2024-03-02T03:58:06.287Z,96503.44
2024-03-02T04:00:34.572Z,96497.63
2024-03-02T04:03:02.814Z,96492.66
2024-03-02T04:05:32.413Z,96491.38
2024-03-02T04:08:01.308Z,96492.59
2024-03-02T04:10:29.555Z,96502.44
2024-03-02T04:12:57.994Z,96493.09
2024-03-02T04:15:26.246Z,96499.69
2024-03-02T04:17:54.445Z,96499.00
2024-03-02T04:20:22.674Z,96499.25
2024-03-02T04:22:52.266Z,96492.97
2024-03-02T04:25:21.009Z,96496.44
2024-03-02T04:27:49.284Z,96499.38
2024-03-02T04:30:17.863Z,96508.34
2024-03-02T04:32:47.678Z,96500.94
2024-03-02T04:35:16.443Z,96515.34
2024-03-02T04:37:44.835Z,96505.25
2024-03-02T04:40:15.148Z,96512.06
2024-03-02T04:42:44.156Z,96513.03
2024-03-02T04:45:12.476Z,96508.28
2024-03-02T04:47:40.710Z,96518.63
2024-03-02T04:50:10.203Z,96508.66
2024-03-02T04:52:38.561Z,96523.28
2024-03-02T04:55:30.610Z,96515.63
2024-03-02T04:58:00.457Z,96516.69
2024-03-02T05:00:28.793Z,96513.13
2024-03-02T05:02:57.010Z,96514.19
2024-03-02T05:05:25.241Z,96513.63
2024-03-02T05:07:53.466Z,96531.06
2024-03-02T05:10:21.824Z,96522.94
2024-03-02T05:12:58.483Z,96525.31
2024-03-02T05:15:30.652Z,96523.91
2024-03-02T05:18:00.587Z,96521.59
2024-03-02T05:20:28.914Z,96522.78
2024-03-02T05:22:57.136Z,96524.63
2024-03-02T05:25:25.398Z,96532.53
2024-03-02T05:27:53.627Z,96528.47
2024-03-02T05:30:22.072Z,96537.19
2024-03-02T05:32:51.770Z,96533.00
2024-03-02T05:35:20.084Z,96533.69
2024-03-02T05:37:48.286Z,96533.69
2024-03-02T05:40:16.794Z,96536.94
2024-03-02T05:42:45.075Z,96534.38
2024-03-02T05:45:13.575Z,96536.25
2024-03-02T05:47:41.845Z,96537.41
2024-03-02T05:50:11.912Z,96539.75
2024-03-02T05:52:40.169Z,96541.84
2024-03-02T05:55:09.109Z,96544.53
2024-03-02T05:57:50.414Z,96543.72
2024-03-02T06:00:19.719Z,96550.66
2024-03-02T06:02:48.101Z,96553.69
2024-03-02T06:05:19.791Z,96547.41
2024-03-02T06:07:48.033Z,96549.38
2024-03-02T06:10:16.515Z,96546.47
2024-03-02T06:12:44.860Z,96544.59
2024-03-02T06:15:13.101Z,96542.38
2024-03-02T06:17:41.362Z,96543.56
2024-03-02T06:20:11.708Z,96543.44
2024-03-02T06:22:41.331Z,96544.00
2024-03-02T06:25:10.396Z,96547.25
2024-03-02T06:27:38.724Z,96550.16
2024-03-02T06:30:09.089Z,96552.34
2024-03-02T06:32:37.307Z,96550.53
2024-03-02T06:35:08.591Z,96552.72
2024-03-02T06:37:36.803Z,96557.03
2024-03-02T06:40:08.710Z,96550.66
2024-03-02T06:42:37.203Z,96539.75
2024-03-02T06:45:06.793Z,96553.69
2024-03-02T06:47:35.062Z,96552.28
2024-03-02T06:50:03.374Z,96551.50
2024-03-02T06:52:31.605Z,96560.88
2024-03-02T06:54:59.933Z,96549.50
2024-03-02T06:57:29.603Z,96542.03
2024-03-02T06:59:59.806Z,96543.28
2024-03-02T07:02:28.877Z,96546.16
2024-03-02T07:04:57.184Z,96547.53
2024-03-02T07:07:25.432Z,96547.31
2024-03-02T07:09:53.713Z,96544.88
2024-03-02T07:12:22.042Z,96537.31
2024-03-02T07:15:12.552Z,96547.53
2024-03-02T07:17:40.845Z,96550.53
2024-03-02T07:20:10.068Z,96550.06
2024-03-02T07:22:40.471Z,96561.28
2024-03-02T07:26:54.544Z,96557.63
2024-03-02T07:27:59.044Z,96559.41
2024-03-02T07:30:30.281Z,96561.31
2024-03-02T07:32:59.576Z,96565.44
2024-03-02T07:35:28.958Z,96565.91
2024-03-02T07:37:57.801Z,96566.00
2024-03-02T07:40:26.252Z,96565.59
2024-03-02T07:42:54.718Z,96573.13
2024-03-02T07:45:23.088Z,96565.66
2024-03-02T07:47:52.795Z,96565.34
2024-03-02T07:50:21.177Z,96566.28
2024-03-02T07:52:49.404Z,96570.25
2024-03-02T07:55:17.796Z,96566.53
2024-03-02T07:57:46.079Z,96567.63
2024-03-02T08:00:15.683Z,96574.28
2024-03-02T08:02:44.331Z,96572.22
2024-03-02T08:05:14.120Z,96570.41
2024-03-02T08:07:42.987Z,96570.38
2024-03-02T08:10:12.479Z,96570.53
2024-03-02T08:12:40.860Z,96571.41
2024-03-02T08:15:09.863Z,96563.28
2024-03-02T08:17:38.701Z,96564.94
2024-03-02T08:20:09.392Z,96568.56
2024-03-02T08:22:39.427Z,96570.88
2024-03-02T08:25:09.035Z,96564.41
2024-03-02T08:27:37.700Z,96570.47
2024-03-02T08:30:09.312Z,96570.59
2024-03-02T08:32:37.584Z,96569.78
2024-03-02T08:35:07.836Z,96563.44
2024-03-02T08:37:36.137Z,96572.53
2024-03-02T08:40:08.267Z,96573.47
2024-03-02T08:42:36.890Z,96572.16
2024-03-02T08:45:05.966Z,96576.19
2024-03-02T08:47:34.849Z,96577.06
2024-03-02T08:50:03.216Z,96574.97
2024-03-02T08:52:31.503Z,96575.03
2024-03-02T08:54:59.816Z,96580.09
2024-03-02T08:57:29.576Z,96573.22
2024-03-02T08:59:57.829Z,96574.03
2024-03-02T09:02:26.208Z,96565.19
2024-03-02T09:04:54.855Z,96567.41
2024-03-02T09:07:23.128Z,96564.34
2024-03-02T09:09:51.568Z,96563.94
2024-03-02T09:12:20.083Z,96574.69
2024-03-02T09:14:49.962Z,96564.72
2024-03-02T09:17:18.236Z,96565.09
2024-03-02T09:19:46.449Z,96567.72
2024-03-02T09:22:14.722Z,96571.41
2024-03-02T09:24:42.997Z,96567.69
2024-03-02T09:27:11.223Z,96564.06
2024-03-02T09:29:39.452Z,96569.03
2024-03-02T09:32:14.529Z,96564.22
2024-03-02T09:34:42.793Z,96566.75
2024-03-02T09:37:11.032Z,96564.44
2024-03-02T09:39:39.269Z,96565.00
2024-03-02T09:42:08.292Z,96564.19
2024-03-02T09:44:36.702Z,96560.94
2024-03-02T09:47:05.290Z,96561.84
2024-03-02T09:49:35.484Z,96556.16
2024-03-02T09:52:07.956Z,96557.63
2024-03-02T09:54:36.292Z,96552.63
2024-03-02T09:57:05.262Z,96551.22
2024-03-02T09:59:33.488Z,96548.69
2024-03-02T10:02:04.028Z,96548.69
2024-03-02T10:04:36.906Z,96535.97
2024-03-02T10:07:16.482Z,96539.19
2024-03-02T10:09:46.716Z,96544.66
2024-03-02T10:12:17.825Z,96544.44
2024-03-02T10:14:49.623Z,96545.47
2024-03-02T10:17:20.284Z,96531.78
2024-03-02T10:19:49.891Z,96530.19
2024-03-02T10:22:18.099Z,96533.41
2024-03-02T10:24:47.470Z,96532.56
2024-03-02T10:27:20.509Z,96525.00
2024-03-02T10:29:49.415Z,96529.06
2024-03-02T10:32:18.730Z,96530.75
2024-03-02T10:34:49.424Z,96530.75
2024-03-02T10:37:19.428Z,96520.38
2024-03-02T10:39:49.318Z,96524.28
2024-03-02T10:42:18.498Z,96512.03
2024-03-02T10:44:48.105Z,96525.69
2024-03-02T10:47:18.517Z,96511.47
2024-03-02T10:49:51.980Z,96519.66
2024-03-02T10:52:20.292Z,96521.59
2024-03-02T10:54:48.614Z,96516.78
2024-03-02T10:57:24.066Z,96513.88
2024-03-02T10:59:58.490Z,96503.59
2024-03-02T11:02:28.750Z,96506.97
2024-03-02T11:05:02.326Z,96495.69
2024-03-02T11:07:31.830Z,96503.03
2024-03-02T11:10:09.593Z,96496.00
2024-03-02T11:12:50.000Z,96496.94
2024-03-02T11:15:21.365Z,96494.91
2024-03-02T11:17:51.038Z,96495.31
2024-03-02T11:20:21.756Z,96495.75
2024-03-02T11:22:50.131Z,96498.53
2024-03-02T11:25:28.600Z,96491.28
2024-03-02T11:28:05.119Z,96498.56
2024-03-02T11:30:52.181Z,96490.94
2024-03-02T11:33:28.582Z,96477.56
2024-03-02T11:35:59.571Z,96477.94
2024-03-02T11:38:36.041Z,96481.38
2024-03-02T11:41:09.823Z,96486.53
2024-03-02T11:43:41.456Z,96473.34
2024-03-02T11:46:09.963Z,96474.41
2024-03-02T11:48:41.316Z,96474.97
2024-03-02T11:51:12.512Z,96471.25
2024-03-02T11:53:42.388Z,96467.13
2024-03-02T11:56:13.644Z,96459.81
2024-03-02T11:58:43.472Z,96465.63
2024-03-02T12:01:14.443Z,96464.88
2024-03-02T12:03:43.119Z,96463.88
2024-03-02T12:06:14.181Z,96457.13
2024-03-02T12:08:44.279Z,96453.69
2024-03-02T12:11:17.318Z,96446.88
2024-03-02T12:13:57.043Z,96444.44
2024-03-02T12:16:28.149Z,96441.59
2024-03-02T12:18:57.495Z,96435.34
2024-03-02T12:21:27.426Z,96438.00
2024-03-02T12:23:56.048Z,96440.09
2024-03-02T12:26:25.559Z,96432.69
2024-03-02T12:28:54.019Z,96429.63
2024-03-02T12:31:22.705Z,96430.22
2024-03-02T12:33:51.382Z,96431.19
2024-03-02T12:36:21.263Z,96428.66
2024-03-02T12:38:51.662Z,96418.19
2024-03-02T12:41:19.927Z,96416.78
2024-03-02T12:43:48.196Z,96409.16
2024-03-02T12:46:17.709Z,96403.50
2024-03-02T12:48:46.069Z,96403.00
2024-03-02T12:51:15.473Z,96400.66
2024-03-02T12:53:43.790Z,96411.66
2024-03-02T12:56:13.481Z,96406.00
2024-03-02T12:58:43.326Z,96403.75
2024-03-02T13:01:12.379Z,96402.91
2024-03-02T13:03:40.948Z,96393.72
2024-03-02T13:06:10.696Z,96394.63
2024-03-02T13:08:38.936Z,96389.50
2024-03-02T13:11:08.122Z,96385.91
2024-03-02T13:13:38.580Z,96382.72
2024-03-02T13:16:11.139Z,96382.69
2024-03-02T13:18:40.916Z,96377.59
2024-03-02T13:21:09.536Z,96381.47
2024-03-02T13:23:37.838Z,96381.44
2024-03-02T13:26:08.540Z,96375.66
2024-03-02T13:28:38.950Z,96373.38
2024-03-02T13:31:07.895Z,96373.31
2024-03-02T13:33:36.238Z,96365.59
2024-03-02T13:36:05.392Z,96364.28
2024-03-02T13:38:33.623Z,96373.75
2024-03-02T13:41:02.324Z,96367.69
2024-03-02T13:43:32.999Z,96363.78
2024-03-02T13:46:03.915Z,96365.44
2024-03-02T13:48:33.063Z,96362.25
2024-03-02T13:51:01.318Z,96360.13
2024-03-02T13:53:29.590Z,96351.28
2024-03-02T13:55:57.955Z,96353.22
2024-03-02T13:58:26.238Z,96350.41
2024-03-02T14:00:54.762Z,96355.19
2024-03-02T14:03:24.658Z,96355.31
2024-03-02T14:05:53.849Z,96361.59
2024-03-02T14:08:22.375Z,96348.75
2024-03-02T14:10:50.660Z,96352.38
2024-03-02T14:13:18.938Z,96355.78
2024-03-02T14:15:47.769Z,96348.91
2024-03-02T14:18:16.135Z,96354.72
2024-03-02T14:20:46.780Z,96348.41
2024-03-02T14:23:15.190Z,96346.81
2024-03-02T14:25:43.484Z,96356.34
2024-03-02T14:28:36.261Z,96357.59
2024-03-02T14:31:01.890Z,96357.59
2024-03-02T14:33:31.670Z,96361.09
2024-03-02T14:36:01.427Z,96362.69
2024-03-02T14:38:30.091Z,96348.13
2024-03-02T14:40:58.609Z,96351.13
2024-03-02T14:43:26.845Z,96349.44
2024-03-02T14:45:55.153Z,96349.06
2024-03-02T14:48:23.811Z,96358.13
2024-03-02T14:50:52.246Z,96344.97
2024-03-02T14:53:21.862Z,96352.66
2024-03-02T14:55:50.723Z,96358.19
2024-03-02T14:58:18.955Z,96346.81
2024-03-02T15:00:47.350Z,96354.09
2024-03-02T15:03:15.907Z,96352.00
2024-03-02T15:05:44.263Z,96354.44
2024-03-02T15:08:12.735Z,96347.69
2024-03-02T15:10:44.999Z,96345.44
2024-03-02T15:13:14.365Z,96345.44
2024-03-02T15:15:43.295Z,96358.03
2024-03-02T15:18:11.582Z,96344.31
2024-03-02T15:20:39.851Z,96350.47
2024-03-02T15:23:08.051Z,96342.59
2024-03-02T15:25:36.298Z,96338.69
2024-03-02T15:28:07.003Z,96345.94
2024-03-02T15:30:35.305Z,96349.81
2024-03-02T15:33:03.576Z,96345.28
2024-03-02T15:35:31.823Z,96345.59
2024-03-02T15:38:00.299Z,96350.13
2024-03-02T15:40:29.328Z,96350.13
2024-03-02T15:42:57.551Z,96354.00
2024-03-02T15:45:34.394Z,96344.97
2024-03-02T15:48:03.302Z,96355.28
2024-03-02T15:50:33.647Z,96361.06
2024-03-02T15:53:05.388Z,96364.78
2024-03-02T15:55:33.643Z,96357.06
2024-03-02T15:58:02.181Z,96353.13
2024-03-02T16:00:31.919Z,96360.59
2024-03-02T16:03:00.163Z,96352.78
2024-03-02T16:05:28.403Z,96353.47
2024-03-02T16:07:56.598Z,96352.06
2024-03-02T16:10:25.688Z,96354.50
2024-03-02T16:12:54.629Z,96352.72
2024-03-02T16:15:23.164Z,96358.19
2024-03-02T16:17:52.735Z,96350.81
2024-03-02T16:20:21.147Z,96345.09
2024-03-02T16:22:49.386Z,96344.88
2024-03-02T16:25:17.852Z,96339.16
2024-03-02T16:27:46.116Z,96344.81
2024-03-02T16:30:15.300Z,96344.78
2024-03-02T16:32:43.641Z,96342.44
2024-03-02T16:35:13.337Z,96341.47
2024-03-02T16:37:41.627Z,96348.88
2024-03-02T16:40:11.536Z,96348.44
2024-03-02T16:42:39.841Z,96344.28
2024-03-02T16:45:08.848Z,96347.19
2024-03-02T16:47:37.121Z,96344.00
2024-03-02T16:50:09.210Z,96344.38
2024-03-02T16:52:38.831Z,96335.53
2024-03-02T16:55:08.539Z,96356.22
2024-03-02T16:57:37.119Z,96352.50
2024-03-02T17:00:08.241Z,96345.94
2024-03-02T17:02:36.701Z,96328.41
2024-03-02T17:05:05.374Z,96335.44
2024-03-02T17:07:33.755Z,96325.19
2024-03-02T17:10:05.444Z,96338.16
2024-03-02T17:12:33.763Z,96338.69
2024-03-02T17:15:02.030Z,96343.44
2024-03-02T17:17:30.284Z,96345.06
2024-03-02T17:19:58.938Z,96342.13
2024-03-02T17:22:27.317Z,96347.94
2024-03-02T17:24:56.985Z,96345.78
2024-03-02T17:27:27.705Z,96352.66
2024-03-02T17:29:56.037Z,96343.44
2024-03-02T17:32:24.321Z,96335.50
2024-03-02T17:34:52.627Z,96324.72
2024-03-02T17:37:20.903Z,96326.19
2024-03-02T17:39:49.457Z,96329.25
2024-03-02T17:42:18.021Z,96326.03
2024-03-02T17:44:47.624Z,96335.44
2024-03-02T17:47:15.861Z,96337.06
2024-03-02T17:49:44.054Z,96327.25
2024-03-02T17:52:12.740Z,96337.72
2024-03-02T17:54:41.528Z,96326.56
2024-03-02T17:57:09.935Z,96315.00
2024-03-02T17:59:38.750Z,96309.38
2024-03-02T18:02:09.038Z,96312.19
2024-03-02T18:04:37.557Z,96302.34
2024-03-02T18:20:53.141Z,96303.88
2024-03-02T18:23:21.450Z,96299.03
2024-03-02T18:25:49.719Z,96301.59
2024-03-02T18:28:18.162Z,96295.91
2024-03-02T18:30:46.659Z,96296.03
2024-03-02T18:33:16.014Z,96291.91
2024-03-02T18:35:44.588Z,96295.38
2024-03-02T18:38:14.171Z,96294.59
2024-03-02T18:40:47.990Z,96292.13
2024-03-02T18:43:16.281Z,96299.94
2024-03-02T18:45:44.688Z,96301.84
2024-03-02T18:48:13.055Z,96299.53
2024-03-02T18:50:41.360Z,96294.56
2024-03-02T18:53:11.620Z,96295.38
2024-03-02T18:55:43.822Z,96292.00
2024-03-02T18:58:12.136Z,96297.25
2024-03-02T19:00:40.737Z,96292.94
2024-03-02T19:03:11.157Z,96295.38
2024-03-02T19:05:40.007Z,96296.06
2024-03-02T19:08:09.069Z,96295.91
2024-03-02T19:10:37.372Z,96290.81
2024-03-02T19:13:07.618Z,96284.06
2024-03-02T19:15:36.385Z,96283.41
2024-03-02T19:18:05.116Z,96281.78
2024-03-02T19:20:33.587Z,96280.97
2024-03-02T19:23:01.910Z,96279.34
2024-03-02T19:25:30.210Z,96280.16
2024-03-02T19:27:58.620Z,96281.78
2024-03-02T19:30:28.497Z,96282.72
2024-03-02T19:32:56.721Z,96270.63
2024-03-02T19:35:26.232Z,96274.78
2024-03-02T19:37:56.385Z,96269.53
2024-03-02T19:40:24.628Z,96268.72
2024-03-02T19:42:52.925Z,96268.72
2024-03-02T19:45:21.164Z,96274.63
2024-03-02T19:47:50.776Z,96259.28
2024-03-02T19:50:19.037Z,96257.56
2024-03-02T19:52:47.416Z,96251.75
2024-03-02T19:55:16.549Z,96255.28
2024-03-02T19:57:46.433Z,96253.91
2024-03-02T20:00:16.309Z,96248.13
2024-03-02T20:28:11.575Z,96246.50
2024-03-02T20:30:41.992Z,96245.56
2024-03-02T20:33:10.350Z,96242.06
2024-03-02T20:35:39.295Z,96235.88
2024-03-02T20:38:07.689Z,96235.63
2024-03-02T20:40:35.941Z,96236.41
2024-03-02T20:43:04.791Z,96235.63
2024-03-02T20:45:33.100Z,96237.34
2024-03-02T20:48:02.691Z,96233.19
2024-03-02T20:50:30.942Z,96235.06
2024-03-02T20:53:01.685Z,96231.03
2024-03-02T20:55:30.018Z,96229.69
2024-03-02T20:57:58.358Z,96234.94
2024-03-02T21:00:26.696Z,96227.25
2024-03-02T21:02:54.942Z,96215.69
2024-03-02T21:05:25.025Z,96222.00
2024-03-02T21:07:53.323Z,96212.72
2024-03-02T21:10:21.659Z,96214.31
2024-03-02T21:12:50.082Z,96222.69
2024-03-02T21:15:18.568Z,96219.44
2024-03-02T21:17:46.893Z,96215.78
2024-03-02T21:20:15.230Z,96214.47
2024-03-02T21:22:48.315Z,96209.19
2024-03-02T21:25:21.114Z,96208.09
2024-03-02T21:27:49.429Z,96207.56
2024-03-02T21:30:19.534Z,96204.19
2024-03-02T21:32:49.633Z,96206.88
2024-03-02T21:35:17.904Z,96210.25
2024-03-02T21:37:47.482Z,96207.84
2024-03-02T21:40:17.560Z,96211.19
2024-03-02T21:42:45.900Z,96202.72
2024-03-02T21:45:14.306Z,96210.78
2024-03-02T21:47:42.563Z,96215.19
2024-03-02T21:50:12.782Z,96212.78
2024-03-02T21:52:41.047Z,96214.91
2024-03-02T21:55:11.876Z,96213.94
2024-03-02T21:57:40.676Z,96209.63
2024-03-02T22:00:10.674Z,96211.47
2024-03-02T22:02:38.841Z,96206.63
2024-03-02T22:05:08.220Z,96210.63
2024-03-02T22:07:36.573Z,96203.09
2024-03-02T22:10:06.668Z,96199.94
2024-03-02T22:12:36.321Z,96192.47
2024-03-02T22:15:05.094Z,96196.31
2024-03-02T22:17:33.489Z,96192.06
2024-03-02T22:20:02.633Z,96188.50
2024-03-02T22:22:30.867Z,96192.41
2024-03-02T22:24:59.267Z,96183.38
2024-03-02T22:27:27.485Z,96171.22
2024-03-02T22:29:57.052Z,96173.78
2024-03-02T22:32:25.260Z,96165.41
2024-03-02T22:34:53.503Z,96164.84
2024-03-02T22:37:21.888Z,96154.69
2024-03-02T22:39:50.122Z,96159.84
2024-03-02T22:42:18.353Z,96152.22
2024-03-02T22:44:46.572Z,96153.56
2024-03-02T22:47:16.147Z,96146.63
2024-03-02T22:49:44.357Z,96146.22
2024-03-02T22:52:12.662Z,96146.09
2024-03-02T22:54:40.953Z,96145.66
2024-03-02T22:57:14.437Z,96147.09
2024-03-02T22:59:42.635Z,96147.63
2024-03-02T23:02:10.942Z,96140.75
2024-03-02T23:04:40.615Z,96130.13
2024-03-02T23:07:08.841Z,96123.91
2024-03-02T23:09:37.142Z,96130.06
2024-03-02T23:12:06.365Z,96126.47
2024-03-02T23:14:34.588Z,96118.69
2024-03-02T23:17:02.839Z,96117.59
2024-03-02T23:19:31.095Z,96118.97
2024-03-02T23:22:00.768Z,96110.28
2024-03-02T23:24:29.045Z,96116.72
2024-03-02T23:26:57.265Z,96113.34
2024-03-02T23:29:25.482Z,96108.00
2024-03-02T23:31:53.723Z,96111.91
2024-03-02T23:34:22.023Z,96115.16
2024-03-02T23:36:50.405Z,96111.38
2024-03-02T23:39:46.660Z,96116.50
2024-03-02T23:42:14.010Z,96118.78
2024-03-02T23:44:42.209Z,96119.94
2024-03-02T23:47:10.936Z,96113.34
2024-03-02T23:49:39.148Z,96117.38
2024-03-02T23:52:07.845Z,96108.63
2024-03-02T23:54:37.695Z,96106.41
2024-03-02T23:57:06.187Z,96112.94
2024-03-02T23:59:34.541Z,96109.91
